Time;durP1;ratioP1;P1;durP2;ratioP2;P2;SDS_P1;SDS_P2;PMS_P1;PMS_P2;Temp;Humidity;BMP_temperature;BMP_pressure;BME280_temperature;BME280_humidity;BME280_pressure;Samples;Min_cycle;Max_cycle;Signal;HPM_P1;HPM_P2
2021/05/03 00:01:50;;;;;;;2.85;2.47;;;;;;;6.27;69.54;101098.81;4790934;29;20068;-73
2021/05/03 00:04:15;;;;;;;2.55;2.15;;;;;;;6.27;69.94;101096.16;4791589;29;20030;-74
2021/05/03 00:06:41;;;;;;;3.90;2.80;;;;;;;6.25;70.43;101088.28;4806326;29;20038;-74
2021/05/03 00:09:07;;;;;;;2.53;2.30;;;;;;;6.23;69.99;101086.78;4791137;29;20052;-73
2021/05/03 00:11:32;;;;;;;2.60;2.40;;;;;;;6.19;69.88;101072.06;4806593;29;20158;-74
2021/05/03 00:13:58;;;;;;;3.10;2.15;;;;;;;6.28;69.02;101090.63;4803786;29;20043;-74
2021/05/03 00:16:25;;;;;;;2.20;2.00;;;;;;;6.37;68.57;101085.31;4824445;29;20042;-74
2021/05/03 00:18:51;;;;;;;2.22;2.00;;;;;;;6.31;68.86;101070.75;4809530;29;20102;-74
2021/05/03 00:21:16;;;;;;;2.20;2.00;;;;;;;6.41;68.48;101082.13;4825703;29;20038;-73
2021/05/03 00:23:42;;;;;;;3.13;2.10;;;;;;;6.38;68.62;101082.47;4809202;29;20083;-74
2021/05/03 00:26:08;;;;;;;2.63;2.42;;;;;;;6.34;69.24;101076.59;4806928;29;20432;-73
2021/05/03 00:28:34;;;;;;;2.28;2.08;;;;;;;6.32;68.90;101056.38;4790788;29;20152;-74
2021/05/03 00:30:59;;;;;;;2.08;1.88;;;;;;;6.37;68.59;101070.09;4791779;29;20122;-73
2021/05/03 00:33:25;;;;;;;5.20;1.83;;;;;;;5.95;67.44;100998.06;4807734;29;20117;-73
2021/05/03 00:35:50;;;;;;;2.70;2.10;;;;;;;6.26;66.72;101022.34;4792683;29;20043;-74
2021/05/03 00:38:16;;;;;;;2.35;2.00;;;;;;;6.62;66.46;101070.09;4808468;29;20046;-74
2021/05/03 00:40:41;;;;;;;2.88;1.88;;;;;;;6.64;65.93;101066.28;4825350;29;20038;-74
2021/05/03 00:43:07;;;;;;;2.50;2.05;;;;;;;6.76;65.39;101074.81;4822454;29;20026;-74
2021/05/03 00:45:33;;;;;;;2.55;1.80;;;;;;;6.82;64.77;101074.13;4798785;29;20049;-74
2021/05/03 00:47:59;;;;;;;2.67;1.80;;;;;;;6.72;64.41;101058.28;4790300;29;20378;-74
2021/05/03 00:50:28;;;;;;;2.25;1.70;;;;;;;6.87;64.25;101071.78;4789068;29;20030;-74
2021/05/03 00:52:54;;;;;;;2.78;1.55;;;;;;;6.79;64.16;101069.13;4763441;29;20149;-74
2021/05/03 00:55:23;;;;;;;2.38;1.50;;;;;;;6.76;64.31;101056.91;4806730;29;20035;-74
2021/05/03 00:57:48;;;;;;;2.42;1.40;;;;;;;6.88;63.76;101070.78;4822007;29;20062;-74
2021/05/03 01:00:14;;;;;;;2.25;1.48;;;;;;;6.85;63.96;101071.09;4809429;29;20023;-74
2021/05/03 01:02:40;;;;;;;2.25;1.20;;;;;;;6.89;63.80;101075.13;4789299;29;20042;-74
2021/05/03 01:05:07;;;;;;;1.70;1.52;;;;;;;6.72;64.31;101052.06;4791417;30;20114;-73
2021/05/03 01:07:32;;;;;;;2.97;1.90;;;;;;;6.43;64.55;101013.31;4814002;29;20928;-74
2021/05/03 01:09:58;;;;;;;1.88;1.67;;;;;;;6.80;64.45;101084.16;4792774;29;20053;-75
2021/05/03 01:12:23;;;;;;;2.45;1.67;;;;;;;6.79;64.82;101079.84;4805136;29;20091;-74
2021/05/03 01:14:50;;;;;;;1.75;1.40;;;;;;;6.77;64.23;101076.47;4805978;29;20046;-74
2021/05/03 01:17:16;;;;;;;1.70;1.50;;;;;;;6.74;64.17;101068.78;4790116;29;20063;-74
2021/05/03 01:19:42;;;;;;;2.58;1.50;;;;;;;6.75;64.57;101068.59;4804749;29;20093;-74
2021/05/03 01:22:07;;;;;;;2.42;1.70;;;;;;;6.73;64.19;101064.44;4806871;29;20469;-74
2021/05/03 01:24:33;;;;;;;2.83;1.40;;;;;;;6.76;64.22;101066.78;4808192;29;20050;-74
2021/05/03 01:26:59;;;;;;;4.05;1.90;;;;;;;6.82;63.33;101076.78;4793991;29;20454;-74
2021/05/03 01:29:25;;;;;;;1.60;1.40;;;;;;;6.93;64.20;101086.34;4805079;29;20034;-74
2021/05/03 01:31:52;;;;;;;1.80;1.50;;;;;;;6.97;63.76;101098.38;4810269;29;20041;-74
2021/05/03 01:34:18;;;;;;;2.30;1.52;;;;;;;6.97;63.90;101091.16;4793202;29;20037;-74
2021/05/03 01:36:46;;;;;;;1.40;1.30;;;;;;;6.97;64.22;101093.00;4810512;29;20101;-73
2021/05/03 01:39:14;;;;;;;1.80;1.60;;;;;;;6.90;64.14;101090.19;4810187;29;20031;-74
2021/05/03 01:41:40;;;;;;;2.10;1.70;;;;;;;6.91;63.58;101091.84;4812822;29;20054;-74
2021/05/03 01:44:08;;;;;;;2.30;1.60;;;;;;;7.00;63.63;101098.88;4795523;29;20041;-73
2021/05/03 01:46:35;;;;;;;2.58;1.50;;;;;;;7.02;63.55;101096.03;4828522;29;20426;-73
2021/05/03 01:49:02;;;;;;;1.35;1.23;;;;;;;7.02;63.60;101090.69;4829758;29;20027;-73
2021/05/03 01:51:29;;;;;;;1.60;1.25;;;;;;;6.97;63.41;101090.34;4800880;29;20034;-74
2021/05/03 01:53:57;;;;;;;3.03;1.40;;;;;;;6.90;64.13;101082.16;4797405;29;20042;-73
2021/05/03 01:56:25;;;;;;;1.50;1.30;;;;;;;6.92;64.03;101090.00;4817163;29;20047;-74
2021/05/03 01:58:51;;;;;;;1.83;1.20;;;;;;;6.87;64.62;101090.50;4811803;29;20030;-73
2021/05/03 02:01:17;;;;;;;2.50;1.30;;;;;;;6.82;64.58;101090.16;4793794;29;20068;-73
2021/05/03 02:03:42;;;;;;;1.30;1.08;;;;;;;6.80;64.67;101092.19;4827456;29;20034;-73
2021/05/03 02:06:08;;;;;;;1.40;1.30;;;;;;;6.77;64.90;101090.69;4824414;29;20071;-73
2021/05/03 02:08:34;;;;;;;2.58;1.20;;;;;;;6.78;64.60;101088.84;4788639;29;20051;-73
2021/05/03 02:10:59;;;;;;;1.58;1.10;;;;;;;6.79;64.42;101090.53;4790827;30;20036;-73
2021/05/03 02:13:26;;;;;;;2.58;1.27;;;;;;;6.72;64.62;101086.81;4800198;29;20067;-73
2021/05/03 02:15:52;;;;;;;1.65;1.20;;;;;;;6.72;65.02;101089.50;4809073;29;20031;-73
2021/05/03 02:18:18;;;;;;;2.05;1.30;;;;;;;6.70;64.89;101088.84;4777439;29;20070;-73
2021/05/03 02:20:45;;;;;;;2.53;1.33;;;;;;;6.63;64.97;101085.19;4792958;29;20030;-73
2021/05/03 02:23:11;;;;;;;2.22;1.45;;;;;;;6.73;63.99;101091.19;4792454;29;20059;-73
2021/05/03 02:25:37;;;;;;;2.22;1.40;;;;;;;6.74;63.78;101082.16;4807861;29;20058;-73
2021/05/03 02:28:02;;;;;;;2.45;1.25;;;;;;;6.77;63.54;101082.66;4793090;29;20042;-74
2021/05/03 02:30:28;;;;;;;1.60;1.35;;;;;;;6.80;63.63;101097.53;4809089;29;20451;-73
2021/05/03 02:32:54;;;;;;;2.58;1.45;;;;;;;6.81;63.51;101093.84;4807927;29;20378;-73
2021/05/03 02:35:22;;;;;;;3.17;1.30;;;;;;;6.78;63.69;101095.00;4809170;29;20072;-74
2021/05/03 02:37:53;;;;;;;1.88;1.25;;;;;;;6.77;63.93;101089.84;4808277;29;20366;-73
2021/05/03 02:40:19;;;;;;;2.00;1.25;;;;;;;6.70;64.17;101087.00;4808238;29;20031;-74
2021/05/03 02:42:49;;;;;;;1.60;1.20;;;;;;;6.69;64.73;101079.13;4808502;29;20122;-73
2021/05/03 02:45:15;;;;;;;2.53;1.30;;;;;;;6.66;64.83;101091.03;4809470;29;20062;-73
2021/05/03 02:47:42;;;;;;;2.38;1.05;;;;;;;6.70;64.52;101088.84;4793304;29;20035;-73
2021/05/03 02:50:08;;;;;;;2.55;1.75;;;;;;;6.74;64.86;101092.84;4795031;29;20031;-73
2021/05/03 02:52:34;;;;;;;1.95;1.70;;;;;;;6.70;64.61;101084.31;4811026;29;20034;-73
2021/05/03 02:54:59;;;;;;;1.70;1.30;;;;;;;6.73;65.36;101081.31;4807367;29;20588;-73
2021/05/03 02:57:25;;;;;;;2.90;2.17;;;;;;;6.76;65.76;101082.84;4781850;29;20063;-73
2021/05/03 02:59:52;;;;;;;5.50;1.52;;;;;;;6.72;66.30;101071.63;4792230;29;20039;-74
2021/05/03 03:02:17;;;;;;;2.75;2.00;;;;;;;6.72;66.97;101078.81;4807289;29;20038;-73
2021/05/03 03:04:43;;;;;;;3.15;2.00;;;;;;;6.69;67.53;101071.97;4808253;29;20071;-74
2021/05/03 03:07:10;;;;;;;3.47;2.20;;;;;;;6.72;67.97;101078.81;4777034;29;20375;-74
2021/05/03 03:09:36;;;;;;;2.47;1.85;;;;;;;6.69;68.37;101073.78;4805136;29;20039;-73
2021/05/03 03:12:03;;;;;;;2.90;2.00;;;;;;;6.64;68.63;101068.94;4791173;29;20788;-73
2021/05/03 03:14:28;;;;;;;3.90;2.10;;;;;;;6.69;68.37;101071.97;4794430;29;20461;-74
2021/05/03 03:16:54;;;;;;;3.83;1.98;;;;;;;6.61;68.63;101063.09;4826717;29;20030;-73
2021/05/03 03:19:19;;;;;;;3.78;1.98;;;;;;;6.63;69.12;101071.81;4823833;29;20146;-73
2021/05/03 03:21:44;;;;;;;2.47;1.80;;;;;;;6.66;68.61;101074.16;4807405;29;20344;-73
2021/05/03 03:24:11;;;;;;;4.28;1.67;;;;;;;6.65;69.07;101067.94;4791965;29;20538;-73
2021/05/03 03:26:36;;;;;;;2.80;1.80;;;;;;;6.66;69.32;101066.13;4806519;29;20022;-73
2021/05/03 03:29:05;;;;;;;2.17;1.60;;;;;;;6.69;69.45;101069.31;4776858;29;20053;-74
2021/05/03 03:31:30;;;;;;;2.78;1.90;;;;;;;6.66;69.41;101068.81;4807257;29;20038;-74
2021/05/03 03:33:57;;;;;;;2.20;1.77;;;;;;;6.50;69.80;101050.91;4776201;29;20358;-73
2021/05/03 03:36:23;;;;;;;2.17;1.60;;;;;;;6.59;70.05;101061.44;4800324;29;20099;-73
2021/05/03 03:38:48;;;;;;;2.53;1.90;;;;;;;6.39;69.66;101030.69;4825287;29;20042;-73
2021/05/03 03:41:14;;;;;;;2.88;1.90;;;;;;;6.53;70.03;101054.09;4817398;29;20022;-74
2021/05/03 03:43:40;;;;;;;2.08;1.67;;;;;;;6.59;69.88;101061.44;4801900;29;20052;-74
2021/05/03 03:46:05;;;;;;;2.00;1.70;;;;;;;6.49;69.94;101044.72;4815955;29;20075;-73
2021/05/03 03:48:30;;;;;;;2.83;1.90;;;;;;;6.52;70.05;101054.22;4807024;29;20026;-73
2021/05/03 03:50:56;;;;;;;1.85;1.63;;;;;;;6.56;69.88;101056.41;4790670;29;20038;-74
2021/05/03 03:53:21;;;;;;;1.98;1.77;;;;;;;6.55;70.47;101052.06;4791006;29;20042;-74
2021/05/03 03:55:47;;;;;;;2.92;1.98;;;;;;;6.53;70.72;101054.09;4791622;29;20043;-74
2021/05/03 03:58:12;;;;;;;2.20;1.90;;;;;;;6.55;70.80;101062.75;4777087;29;20039;-74
2021/05/03 04:00:38;;;;;;;3.78;1.77;;;;;;;6.56;70.34;101047.56;4820408;29;20035;-73
2021/05/03 04:03:07;;;;;;;2.08;1.83;;;;;;;6.57;70.77;101054.59;4807149;29;20091;-73
2021/05/03 04:26:25;;;;;;;3.63;1.42;;;;;;;6.75;73.27;101051.72;4825510;29;20129;-74
2021/05/03 04:28:52;;;;;;;3.45;1.65;;;;;;;6.80;72.84;101054.75;4806750;29;20125;-74
2021/05/03 04:31:20;;;;;;;2.13;1.67;;;;;;;6.85;73.00;101052.38;4805485;29;20419;-74
2021/05/03 04:33:46;;;;;;;4.40;1.48;;;;;;;6.82;73.17;101052.72;4791000;29;20079;-74
2021/05/03 04:36:11;;;;;;;3.85;1.20;;;;;;;6.84;73.69;101064.09;4805579;29;20048;-74
2021/05/03 04:38:37;;;;;;;6.65;1.35;;;;;;;6.86;73.49;101058.59;4807151;29;20351;-74
2021/05/03 04:41:03;;;;;;;3.55;1.30;;;;;;;6.83;73.60;101057.91;4805624;29;20046;-74
2021/05/03 04:43:28;;;;;;;6.13;1.58;;;;;;;6.82;73.88;101048.22;4781378;29;20035;-74
2021/05/03 04:45:53;;;;;;;4.03;1.27;;;;;;;6.91;74.08;101056.22;4771925;30;20180;-74
2021/05/03 04:48:19;;;;;;;5.95;1.45;;;;;;;6.86;74.02;101046.06;4788267;29;20035;-75
2021/05/03 04:50:45;;;;;;;6.50;1.70;;;;;;;6.97;73.74;101059.06;4808791;29;20034;-74
2021/05/03 04:53:11;;;;;;;1.92;1.20;;;;;;;6.90;73.19;101050.06;4805626;29;20038;-73
2021/05/03 04:55:37;;;;;;;5.50;1.60;;;;;;;6.96;73.17;101059.25;4787694;29;20035;-74
2021/05/03 04:58:03;;;;;;;7.03;1.60;;;;;;;6.92;72.82;101056.09;4800523;29;20031;-73
2021/05/03 05:00:28;;;;;;;4.20;1.73;;;;;;;6.95;72.75;101063.75;4808630;29;20039;-74
2021/05/03 05:02:54;;;;;;;3.67;1.40;;;;;;;6.99;72.86;101064.25;4789218;29;20038;-74
2021/05/03 05:05:19;;;;;;;4.55;1.42;;;;;;;6.94;72.62;101050.53;4780404;29;20122;-74
2021/05/03 05:07:45;;;;;;;2.50;1.35;;;;;;;7.05;72.49;101067.09;4775139;29;20311;-75
2021/05/03 05:10:12;;;;;;;2.70;1.30;;;;;;;7.04;72.50;101061.91;4807260;29;20045;-74
2021/05/03 05:12:37;;;;;;;2.33;1.35;;;;;;;6.99;72.26;101061.59;4787848;29;20522;-75
2021/05/03 05:15:05;;;;;;;3.42;1.70;;;;;;;7.04;71.74;101068.09;4790382;29;20038;-75
2021/05/03 05:17:31;;;;;;;2.85;1.65;;;;;;;7.05;72.18;101053.72;4805938;29;20027;-75
2021/05/03 05:19:57;;;;;;;2.25;1.60;;;;;;;7.08;72.07;101063.22;4790738;29;20487;-75
2021/05/03 05:22:25;;;;;;;3.88;1.60;;;;;;;7.11;72.01;101056.72;4787402;29;20084;-74
2021/05/03 05:24:50;;;;;;;4.68;1.80;;;;;;;7.16;72.17;101057.03;4790468;29;20129;-74
2021/05/03 05:27:16;;;;;;;2.30;1.73;;;;;;;7.12;71.71;101053.00;4778610;29;20512;-75
2021/05/03 05:29:41;;;;;;;2.45;1.50;;;;;;;7.14;72.33;101059.03;4798336;29;20513;-74
2021/05/03 05:32:07;;;;;;;2.97;1.70;;;;;;;7.16;72.02;101051.69;4799969;29;20339;-74
2021/05/03 05:34:33;;;;;;;3.42;2.10;;;;;;;7.19;71.63;101054.84;4775817;29;20109;-74
2021/05/03 05:36:59;;;;;;;3.72;1.77;;;;;;;7.16;71.52;101041.00;4773271;29;20122;-74
2021/05/03 05:39:24;;;;;;;5.20;1.90;;;;;;;7.35;71.79;101055.81;4776147;29;20335;-74
2021/05/03 05:41:50;;;;;;;4.32;2.00;;;;;;;7.43;71.61;101050.44;4790574;29;20042;-74
2021/05/03 05:44:16;;;;;;;2.00;1.70;;;;;;;7.47;71.63;101047.22;4803879;29;20094;-73
2021/05/03 05:46:43;;;;;;;2.97;1.77;;;;;;;7.61;70.88;101059.06;4808174;29;20049;-74
2021/05/03 05:49:09;;;;;;;3.42;2.05;;;;;;;7.64;71.03;101063.25;4788195;29;20027;-74
2021/05/03 05:51:34;;;;;;;3.15;1.80;;;;;;;7.68;71.21;101052.03;4805372;29;20026;-74
2021/05/03 05:54:00;;;;;;;5.00;1.92;;;;;;;7.76;70.54;101051.13;4803749;29;20481;-73
2021/05/03 05:56:25;;;;;;;4.85;1.90;;;;;;;7.79;70.20;101048.13;4770587;30;20467;-75
2021/05/03 05:58:51;;;;;;;2.70;1.67;;;;;;;7.85;69.82;101052.78;4770932;30;20138;-75
2021/05/03 06:01:16;;;;;;;5.63;1.90;;;;;;;7.95;69.70;101049.88;4798071;29;20117;-74
2021/05/03 06:03:42;;;;;;;3.72;1.85;;;;;;;8.05;69.42;101046.97;4805743;29;20411;-74
2021/05/03 06:06:07;;;;;;;4.85;2.20;;;;;;;8.16;68.99;101054.59;4804375;29;20027;-74
2021/05/03 06:08:34;;;;;;;5.00;1.80;;;;;;;8.25;68.31;101045.50;4802887;29;20042;-74
2021/05/03 06:10:59;;;;;;;2.05;1.85;;;;;;;8.34;67.61;101040.91;4805547;29;20067;-74
2021/05/03 06:13:26;;;;;;;4.63;1.90;;;;;;;8.58;67.47;101043.44;4787902;29;20422;-74
2021/05/03 06:15:52;;;;;;;2.60;1.90;;;;;;;8.84;67.21;101050.25;4791635;29;20026;-74
2021/05/03 06:18:21;;;;;;;5.28;1.73;;;;;;;9.05;66.41;101049.56;4808591;29;20373;-74
2021/05/03 06:20:48;;;;;;;6.22;1.90;;;;;;;8.99;66.46;101045.75;4814621;29;20370;-74
2021/05/03 06:23:13;;;;;;;4.65;1.80;;;;;;;8.83;66.15;101027.97;4812773;29;20046;-74
2021/05/03 06:25:40;;;;;;;2.75;1.85;;;;;;;8.96;65.68;101046.13;4787069;29;20077;-74
2021/05/03 06:28:06;;;;;;;5.70;1.83;;;;;;;8.90;65.42;101045.00;4807168;29;20042;-74
2021/05/03 06:30:34;;;;;;;2.05;1.45;;;;;;;8.91;65.29;101045.84;4790073;29;20175;-74
2021/05/03 06:33:00;;;;;;;1.65;1.50;;;;;;;8.82;65.52;101047.75;4787845;29;20534;-74
2021/05/03 06:35:25;;;;;;;1.50;1.35;;;;;;;8.75;65.90;101044.16;4802510;29;20034;-74
2021/05/03 06:37:51;;;;;;;4.55;1.40;;;;;;;8.74;65.46;101049.69;4790081;29;20039;-74
2021/05/03 06:40:18;;;;;;;2.47;1.42;;;;;;;8.62;65.67;101041.25;4793929;29;20046;-74
2021/05/03 06:42:44;;;;;;;3.22;1.58;;;;;;;8.53;65.55;101047.69;4794124;29;20098;-75
2021/05/03 06:45:11;;;;;;;1.67;1.10;;;;;;;8.51;65.89;101055.91;4807513;29;20088;-74
2021/05/03 06:47:38;;;;;;;2.10;1.48;;;;;;;8.59;65.36;101052.31;4796375;29;20449;-74
2021/05/03 06:50:07;;;;;;;1.60;1.50;;;;;;;8.57;65.54;101051.66;4804573;29;20482;-74
2021/05/03 06:52:34;;;;;;;2.47;1.52;;;;;;;8.60;65.31;101038.72;4795048;29;20042;-74
2021/05/03 06:54:59;;;;;;;2.17;1.40;;;;;;;8.64;65.34;101048.09;4790779;29;20049;-74
2021/05/03 06:57:25;;;;;;;2.78;1.70;;;;;;;8.58;65.35;101038.09;4790500;29;20114;-74
2021/05/03 06:59:51;;;;;;;3.72;1.60;;;;;;;8.68;65.59;101040.53;4779872;29;20039;-74
2021/05/03 07:02:16;;;;;;;2.75;1.40;;;;;;;8.73;65.27;101042.66;4794092;29;20045;-74
2021/05/03 07:04:43;;;;;;;2.05;1.65;;;;;;;8.75;65.15;101035.25;4808588;29;20046;-74
2021/05/03 07:07:09;;;;;;;3.83;1.77;;;;;;;8.79;64.90;101032.03;4791029;29;20102;-75
2021/05/03 07:09:34;;;;;;;2.20;1.73;;;;;;;9.03;64.85;101033.63;4792832;29;20038;-74
2021/05/03 07:12:08;;;;;;;4.22;1.60;;;;;;;8.99;63.66;101026.13;4797242;29;20481;-74
2021/05/03 07:14:36;;;;;;;3.30;1.85;;;;;;;9.08;63.75;101039.28;4807648;29;20374;-74
2021/05/03 07:17:04;;;;;;;4.00;2.10;;;;;;;9.11;64.11;101043.47;4802388;29;20545;-74
2021/05/03 07:19:34;;;;;;;3.00;1.83;;;;;;;9.29;64.35;101038.56;4801658;29;20062;-75
2021/05/03 07:22:01;;;;;;;2.67;1.88;;;;;;;9.29;63.72;101029.69;4786142;29;20604;-74
2021/05/03 07:24:26;;;;;;;2.92;2.03;;;;;;;9.36;63.99;101026.06;4788375;29;20026;-74
2021/05/03 07:26:52;;;;;;;2.30;1.80;;;;;;;9.52;63.44;101043.00;4808205;29;20437;-74
2021/05/03 07:29:18;;;;;;;2.60;1.73;;;;;;;9.54;63.82;101030.22;4792250;29;20134;-75
2021/05/03 07:31:44;;;;;;;2.40;1.80;;;;;;;9.50;64.15;101028.91;4779421;29;20529;-74
2021/05/03 07:34:10;;;;;;;2.03;1.73;;;;;;;9.48;64.29;101031.81;4790467;29;20468;-74
2021/05/03 07:36:35;;;;;;;3.35;1.90;;;;;;;9.37;63.91;101022.38;4805969;29;20470;-74
2021/05/03 07:39:01;;;;;;;3.60;2.00;;;;;;;9.56;63.78;101031.69;4802826;29;20035;-74
2021/05/03 07:41:28;;;;;;;5.35;1.80;;;;;;;9.47;64.18;101037.34;4792603;29;20058;-74
2021/05/03 07:43:53;;;;;;;3.65;1.73;;;;;;;9.26;63.78;101027.34;4810017;29;20042;-75
2021/05/03 07:46:24;;;;;;;3.25;1.88;;;;;;;9.10;64.52;101031.88;4788636;29;20054;-75
2021/05/03 07:48:56;;;;;;;2.97;1.77;;;;;;;8.99;64.47;101031.50;4793421;29;20079;-75
2021/05/03 07:51:22;;;;;;;2.55;1.48;;;;;;;9.01;64.83;101034.84;4805567;29;20027;-74
2021/05/03 07:53:47;;;;;;;2.25;1.70;;;;;;;9.06;65.01;101035.13;4789381;29;20037;-75
2021/05/03 07:56:16;;;;;;;3.30;2.10;;;;;;;9.11;64.56;101038.09;4807101;29;20131;-74
2021/05/03 07:58:42;;;;;;;2.03;1.73;;;;;;;9.09;64.29;101024.03;4808573;29;20079;-74
2021/05/03 08:01:09;;;;;;;3.50;1.73;;;;;;;9.08;63.56;101031.25;4788670;29;20047;-74
2021/05/03 08:03:39;;;;;;;2.35;1.90;;;;;;;9.07;63.91;101034.09;4807008;29;20166;-75
2021/05/03 08:06:06;;;;;;;2.83;1.75;;;;;;;9.14;63.54;101037.75;4803842;29;20027;-74
2021/05/03 08:08:32;;;;;;;3.83;2.05;;;;;;;9.18;62.51;101021.06;4792008;29;20046;-75
2021/05/03 08:10:58;;;;;;;3.50;1.52;;;;;;;9.29;62.74;101033.19;4806898;29;20046;-75
2021/05/03 08:13:27;;;;;;;2.00;1.65;;;;;;;9.40;61.67;101029.19;4791849;29;20046;-75
2021/05/03 08:15:54;;;;;;;2.25;1.63;;;;;;;9.24;61.64;101019.50;4789162;29;20034;-77
2021/05/03 08:18:19;;;;;;;1.60;1.50;;;;;;;9.34;62.12;101030.78;4801924;29;20385;-74
2021/05/03 08:20:45;;;;;;;1.85;1.55;;;;;;;9.41;61.80;101029.03;4793865;29;20382;-74
2021/05/03 08:23:18;;;;;;;2.53;1.80;;;;;;;9.41;61.27;101030.88;4792831;29;20466;-74
2021/05/03 08:25:44;;;;;;;2.67;1.60;;;;;;;9.44;61.21;101022.47;4813786;29;20031;-75
2021/05/03 08:28:09;;;;;;;2.10;1.80;;;;;;;9.38;61.75;101024.03;4791520;29;20057;-75
2021/05/03 08:30:35;;;;;;;3.22;1.90;;;;;;;9.38;62.00;101020.50;4791689;29;20027;-75
2021/05/03 08:33:00;;;;;;;2.90;1.70;;;;;;;9.47;62.04;101019.41;4815365;29;20116;-75
2021/05/03 08:35:25;;;;;;;4.63;1.70;;;;;;;9.44;61.86;101019.78;4808834;29;20026;-74
2021/05/03 08:37:51;;;;;;;3.55;1.80;;;;;;;9.47;61.65;101015.84;4798550;29;20106;-75
2021/05/03 08:40:16;;;;;;;4.03;2.00;;;;;;;9.41;62.14;101020.16;4813262;29;20043;-74
2021/05/03 08:42:43;;;;;;;3.40;1.90;;;;;;;9.27;61.52;101016.44;4810593;29;20039;-75
2021/05/03 08:45:09;;;;;;;3.20;1.90;;;;;;;9.11;61.58;101022.00;4808625;29;20050;-75
2021/05/03 08:47:38;;;;;;;2.42;2.05;;;;;;;9.02;62.04;101017.72;4809118;29;20031;-74
2021/05/03 08:50:12;;;;;;;3.40;1.80;;;;;;;9.00;62.41;101019.75;4805677;29;20467;-74
2021/05/03 08:55:07;;;;;;;3.65;1.90;;;;;;;8.87;63.33;101023.06;4793088;29;20050;-75
2021/05/03 08:57:32;;;;;;;3.85;2.05;;;;;;;8.72;63.79;101017.69;4776207;29;20492;-74
2021/05/03 08:59:58;;;;;;;2.95;2.20;;;;;;;8.63;63.53;101021.44;4786816;29;20161;-74
2021/05/03 09:02:24;;;;;;;4.00;1.88;;;;;;;8.41;64.01;101007.03;4801335;29;20023;-75
2021/05/03 09:04:49;;;;;;;2.30;2.10;;;;;;;8.34;64.89;101025.66;4804938;29;20187;-75
2021/05/03 09:07:19;;;;;;;4.95;2.40;;;;;;;8.26;64.91;101030.25;4789196;29;20038;-74
2021/05/03 09:09:54;;;;;;;3.08;1.90;;;;;;;8.18;65.50;101021.25;4783881;29;20034;-74
2021/05/03 09:12:22;;;;;;;2.67;2.10;;;;;;;8.14;65.75;101022.59;4786888;29;20372;-75
2021/05/03 09:14:58;;;;;;;3.00;2.33;;;;;;;8.16;65.65;101025.13;4807530;29;20031;-74
2021/05/03 09:17:35;;;;;;;3.20;2.20;;;;;;;8.14;66.27;101016.41;4792081;29;20031;-74
2021/05/03 09:20:06;;;;;;;2.90;2.30;;;;;;;8.22;65.97;101027.09;4795491;29;20074;-74
2021/05/03 09:23:16;;;;;;;5.70;2.50;;;;;;;8.31;65.63;101023.34;4799375;29;20030;-74
2021/05/03 09:28:12;;;;;;;2.67;2.00;;;;;;;8.58;65.86;101016.63;4801822;29;20030;-75
2021/05/03 09:30:39;;;;;;;2.83;1.70;;;;;;;8.78;65.20;101013.44;4800912;29;20031;-75
2021/05/03 09:33:19;;;;;;;4.45;1.67;;;;;;;8.89;65.10;101008.44;4795248;29;20051;-73
2021/05/03 09:35:49;;;;;;;1.75;1.40;;;;;;;8.88;65.12;101004.09;4793910;29;20033;-74
2021/05/03 09:38:37;;;;;;;2.70;1.63;;;;;;;9.13;64.16;101001.97;4803107;29;20041;-74
2021/05/03 09:41:18;;;;;;;2.28;1.75;;;;;;;9.35;62.67;101010.97;4801269;29;20043;-74
2021/05/03 09:43:50;;;;;;;2.80;1.60;;;;;;;9.34;62.53;101009.31;4799518;29;20035;-74
2021/05/03 09:46:38;;;;;;;1.85;1.60;;;;;;;9.52;62.28;101000.03;4795791;29;20112;-75
2021/05/03 09:49:08;;;;;;;1.45;1.00;;;;;;;10.00;61.67;100992.31;4787038;29;20034;-76
2021/05/03 09:51:36;;;;;;;1.60;1.35;;;;;;;10.36;60.69;100989.59;4806414;29;20039;-75
2021/05/03 09:54:26;;;;;;;1.52;1.35;;;;;;;10.34;58.98;100988.97;4809927;29;20394;-75
2021/05/03 09:56:55;;;;;;;2.35;1.40;;;;;;;10.22;58.84;100980.53;4806838;29;20034;-76
2021/05/03 10:00:01;;;;;;;1.92;1.38;;;;;;;10.17;58.55;100977.59;4807059;29;20033;-75
2021/05/03 10:02:33;;;;;;;1.88;1.67;;;;;;;10.19;58.85;100970.16;4808050;29;20033;-76
2021/05/03 10:05:09;;;;;;;2.25;1.30;;;;;;;10.37;58.78;100950.94;4809347;29;20485;-76
2021/05/03 10:07:40;;;;;;;2.78;1.23;;;;;;;10.39;58.84;100977.63;4808534;29;20070;-75
2021/05/03 10:12:37;;;;;;;1.58;1.10;;;;;;;9.84;58.97;100977.28;4813457;29;20549;-75
2021/05/03 10:15:09;;;;;;;2.00;1.45;;;;;;;9.56;60.32;100952.97;4815661;29;20023;-76
2021/05/03 10:17:39;;;;;;;1.40;1.20;;;;;;;9.42;59.96;100968.09;4812028;29;20035;-76
2021/05/03 10:20:06;;;;;;;1.95;1.17;;;;;;;9.40;60.09;100981.72;4807749;29;20114;-75
2021/05/03 10:22:31;;;;;;;3.67;1.40;;;;;;;9.59;59.95;100960.63;4790605;29;20346;-75
2021/05/03 10:25:07;;;;;;;2.78;1.30;;;;;;;9.99;59.41;100977.19;4806413;29;20126;-75
2021/05/03 10:27:41;;;;;;;2.00;1.80;;;;;;;9.90;59.35;100976.50;4808643;29;20038;-75
2021/05/03 10:30:17;;;;;;;3.10;1.70;;;;;;;10.29;58.89;100972.56;4805179;29;20045;-75
2021/05/03 10:32:46;;;;;;;4.00;2.05;;;;;;;10.46;58.47;100978.50;4804553;29;20052;-76
2021/05/03 10:35:26;;;;;;;3.20;1.73;;;;;;;10.49;57.77;100957.41;4808106;29;20034;-75
2021/05/03 10:37:53;;;;;;;4.00;1.75;;;;;;;10.44;57.91;100954.50;4803666;29;20030;-75
2021/05/03 10:40:18;;;;;;;5.00;1.80;;;;;;;10.27;58.84;100966.56;4805436;29;20035;-75
2021/05/03 10:43:15;;;;;;;4.97;2.80;;;;;;;10.18;58.41;100971.19;4804888;29;20023;-75
2021/05/03 10:49:17;;;;;;;6.10;2.72;;;;;;;10.46;57.33;100970.44;4805494;29;20458;-76
2021/05/03 10:57:16;;;;;;;7.90;2.95;;;;;;;9.71;57.04;100873.16;4801667;29;20039;-76
2021/05/03 10:59:49;;;;;;;9.05;2.60;;;;;;;10.34;56.80;100968.28;4805520;29;20038;-76
2021/05/03 11:02:19;;;;;;;8.30;2.22;;;;;;;10.42;55.36;100964.59;4805273;29;20068;-75
2021/05/03 11:05:29;;;;;;;6.20;1.88;;;;;;;10.48;54.71;100968.38;4807035;29;20028;-75
2021/05/03 11:08:03;;;;;;;6.05;1.40;;;;;;;10.88;54.69;100963.31;4805971;29;20035;-76
2021/05/03 11:10:54;;;;;;;9.57;1.80;;;;;;;10.79;53.44;100960.78;4807782;29;20620;-75
2021/05/03 11:13:38;;;;;;;8.18;1.27;;;;;;;10.98;52.59;100969.16;4790712;29;20050;-75
2021/05/03 11:16:30;;;;;;;4.97;1.17;;;;;;;10.84;51.18;100970.94;4805584;29;20019;-76
2021/05/03 11:19:00;;;;;;;7.38;1.73;;;;;;;10.73;52.00;100976.88;4808220;29;20091;-75
2021/05/03 11:21:40;;;;;;;8.43;1.75;;;;;;;10.87;51.88;100972.41;4801223;29;20142;-75
2021/05/03 11:24:16;;;;;;;9.68;1.38;;;;;;;10.74;50.79;100924.69;4803781;29;20028;-75
2021/05/03 11:26:54;;;;;;;10.13;1.45;;;;;;;10.89;50.39;100932.66;4803378;29;20038;-75
2021/05/03 11:29:22;;;;;;;5.78;1.42;;;;;;;11.02;50.69;100962.34;4805308;29;20031;-75
2021/05/03 11:31:48;;;;;;;6.95;1.25;;;;;;;10.99;51.15;100960.03;4790766;29;20047;-75
2021/05/03 11:37:21;;;;;;;5.53;1.23;;;;;;;10.81;51.10;100957.88;4781791;29;20039;-75
2021/05/03 11:40:09;;;;;;;7.57;1.38;;;;;;;10.63;51.02;100947.63;4779016;29;20034;-76
2021/05/03 11:42:59;;;;;;;6.03;1.17;;;;;;;10.72;50.85;100959.88;4794592;29;20129;-75
2021/05/03 11:45:30;;;;;;;8.23;1.45;;;;;;;10.92;51.17;100960.00;4810255;29;20095;-75
2021/05/03 11:47:57;;;;;;;5.72;1.58;;;;;;;11.10;50.04;100959.50;4803049;29;20109;-75
2021/05/03 11:50:30;;;;;;;8.90;1.55;;;;;;;10.98;49.96;100959.22;4799264;29;20046;-75
2021/05/03 11:52:56;;;;;;;4.93;1.23;;;;;;;10.78;50.06;100956.41;4808390;29;20536;-75
2021/05/03 11:55:27;;;;;;;6.30;1.30;;;;;;;10.82;50.88;100952.28;4789184;29;20027;-75
2021/05/03 11:57:53;;;;;;;6.03;1.55;;;;;;;10.96;50.20;100955.06;4788266;29;20137;-76
2021/05/03 12:00:24;;;;;;;8.35;1.48;;;;;;;11.18;49.76;100959.31;4804358;29;20110;-76
2021/05/03 12:03:05;;;;;;;5.38;1.20;;;;;;;11.48;47.91;100941.00;4800429;29;20038;-76
2021/05/03 12:05:32;;;;;;;3.90;1.02;;;;;;;11.54;47.93;100939.38;4804718;29;20038;-76
2021/05/03 12:07:57;;;;;;;9.15;1.30;;;;;;;11.51;47.44;100947.88;4805128;29;20069;-75
2021/05/03 12:10:23;;;;;;;5.72;1.50;;;;;;;11.46;48.30;100947.66;4805941;29;20070;-76
2021/05/03 12:12:53;;;;;;;6.68;1.15;;;;;;;11.08;47.61;100958.03;4788754;29;20042;-76
2021/05/03 12:15:27;;;;;;;8.57;1.33;;;;;;;10.91;48.97;100955.66;4803384;29;20097;-76
2021/05/03 12:18:02;;;;;;;8.60;1.30;;;;;;;10.52;50.92;100958.91;4808500;29;20034;-76